sensor_id;sensor_type;location;lat;lon;timestamp;temperature;humidity
10233;DHT22;5161;48.174;11.756;2023-04-16T00:01:08;7.90;83.20
10233;DHT22;5161;48.174;11.756;2023-04-16T00:03:33;7.90;82.90
10233;DHT22;5161;48.174;11.756;2023-04-16T00:05:59;7.80;83.00
10233;DHT22;5161;48.174;11.756;2023-04-16T00:08:24;7.70;83.10
10233;DHT22;5161;48.174;11.756;2023-04-16T00:10:52;7.70;83.30
10233;DHT22;5161;48.174;11.756;2023-04-16T00:13:17;7.80;83.60
10233;DHT22;5161;48.174;11.756;2023-04-16T00:15:43;7.70;83.20
10233;DHT22;5161;48.174;11.756;2023-04-16T00:18:09;7.70;83.40
10233;DHT22;5161;48.174;11.756;2023-04-16T00:20:34;7.80;83.60
10233;DHT22;5161;48.174;11.756;2023-04-16T00:23:00;7.80;83.40
10233;DHT22;5161;48.174;11.756;2023-04-16T00:25:25;7.80;83.30
10233;DHT22;5161;48.174;11.756;2023-04-16T00:27:51;7.70;83.40
10233;DHT22;5161;48.174;11.756;2023-04-16T00:30:16;7.70;83.00
10233;DHT22;5161;48.174;11.756;2023-04-16T00:32:42;7.60;82.90
10233;DHT22;5161;48.174;11.756;2023-04-16T00:35:07;7.60;83.10
10233;DHT22;5161;48.174;11.756;2023-04-16T00:37:33;7.60;83.00
10233;DHT22;5161;48.174;11.756;2023-04-16T00:40:00;7.50;82.80
10233;DHT22;5161;48.174;11.756;2023-04-16T00:42:25;7.50;83.10
10233;DHT22;5161;48.174;11.756;2023-04-16T00:44:51;7.50;83.00
10233;DHT22;5161;48.174;11.756;2023-04-16T00:47:18;7.50;83.30
10233;DHT22;5161;48.174;11.756;2023-04-16T00:49:45;7.60;83.10
10233;DHT22;5161;48.174;11.756;2023-04-16T00:52:11;7.50;83.00
10233;DHT22;5161;48.174;11.756;2023-04-16T00:54:36;7.40;83.10
10233;DHT22;5161;48.174;11.756;2023-04-16T00:57:02;7.40;83.40
10233;DHT22;5161;48.174;11.756;2023-04-16T00:59:28;7.40;83.20
10233;DHT22;5161;48.174;11.756;2023-04-16T01:01:54;7.40;83.50
10233;DHT22;5161;48.174;11.756;2023-04-16T01:04:20;7.40;83.10
10233;DHT22;5161;48.174;11.756;2023-04-16T01:06:45;7.40;83.30
10233;DHT22;5161;48.174;11.756;2023-04-16T01:09:12;7.40;83.00
10233;DHT22;5161;48.174;11.756;2023-04-16T01:11:37;7.40;83.40
10233;DHT22;5161;48.174;11.756;2023-04-16T01:14:04;7.40;83.50
10233;DHT22;5161;48.174;11.756;2023-04-16T01:16:29;7.40;83.20
10233;DHT22;5161;48.174;11.756;2023-04-16T01:18:55;7.40;83.50
10233;DHT22;5161;48.174;11.756;2023-04-16T01:21:20;7.30;83.50
10233;DHT22;5161;48.174;11.756;2023-04-16T01:23:46;7.30;83.40
10233;DHT22;5161;48.174;11.756;2023-04-16T01:26:12;7.30;83.20
10233;DHT22;5161;48.174;11.756;2023-04-16T01:28:37;7.20;83.80
10233;DHT22;5161;48.174;11.756;2023-04-16T01:31:03;7.20;83.20
10233;DHT22;5161;48.174;11.756;2023-04-16T01:33:28;7.30;83.60
10233;DHT22;5161;48.174;11.756;2023-04-16T01:35:54;7.30;83.60
10233;DHT22;5161;48.174;11.756;2023-04-16T01:38:19;7.30;83.70
10233;DHT22;5161;48.174;11.756;2023-04-16T01:40:45;7.30;83.60
10233;DHT22;5161;48.174;11.756;2023-04-16T01:43:11;7.30;83.60
10233;DHT22;5161;48.174;11.756;2023-04-16T01:45:36;7.30;84.00
10233;DHT22;5161;48.174;11.756;2023-04-16T01:48:02;7.30;83.90
10233;DHT22;5161;48.174;11.756;2023-04-16T01:50:28;7.40;83.90
10233;DHT22;5161;48.174;11.756;2023-04-16T01:52:55;7.30;83.50
10233;DHT22;5161;48.174;11.756;2023-04-16T01:55:20;7.40;83.80
10233;DHT22;5161;48.174;11.756;2023-04-16T01:57:46;7.40;84.10
10233;DHT22;5161;48.174;11.756;2023-04-16T02:00:11;7.40;83.90
10233;DHT22;5161;48.174;11.756;2023-04-16T02:02:37;7.50;84.20
10233;DHT22;5161;48.174;11.756;2023-04-16T02:05:03;7.50;84.10
10233;DHT22;5161;48.174;11.756;2023-04-16T02:07:29;7.50;83.90
10233;DHT22;5161;48.174;11.756;2023-04-16T02:09:56;7.50;83.50
10233;DHT22;5161;48.174;11.756;2023-04-16T02:12:22;7.50;83.90
10233;DHT22;5161;48.174;11.756;2023-04-16T02:14:48;7.50;83.70
10233;DHT22;5161;48.174;11.756;2023-04-16T02:17:14;7.50;83.80
10233;DHT22;5161;48.174;11.756;2023-04-16T02:19:40;7.50;83.50
10233;DHT22;5161;48.174;11.756;2023-04-16T02:22:05;7.50;83.60
10233;DHT22;5161;48.174;11.756;2023-04-16T02:24:31;7.50;83.70
10233;DHT22;5161;48.174;11.756;2023-04-16T02:26:57;7.50;83.70
10233;DHT22;5161;48.174;11.756;2023-04-16T02:29:22;7.50;83.80
10233;DHT22;5161;48.174;11.756;2023-04-16T02:31:48;7.50;83.70
10233;DHT22;5161;48.174;11.756;2023-04-16T02:34:14;7.50;84.20
10233;DHT22;5161;48.174;11.756;2023-04-16T02:36:40;7.50;83.60
10233;DHT22;5161;48.174;11.756;2023-04-16T02:39:06;7.50;83.60
10233;DHT22;5161;48.174;11.756;2023-04-16T02:41:31;7.50;83.30
10233;DHT22;5161;48.174;11.756;2023-04-16T02:43:57;7.50;83.50
10233;DHT22;5161;48.174;11.756;2023-04-16T02:46:23;7.50;83.70
10233;DHT22;5161;48.174;11.756;2023-04-16T02:48:48;7.50;83.30
10233;DHT22;5161;48.174;11.756;2023-04-16T02:51:14;7.50;83.80
10233;DHT22;5161;48.174;11.756;2023-04-16T02:53:39;7.50;83.90
10233;DHT22;5161;48.174;11.756;2023-04-16T02:56:06;7.50;83.70
10233;DHT22;5161;48.174;11.756;2023-04-16T02:58:31;7.50;83.70
10233;DHT22;5161;48.174;11.756;2023-04-16T03:00:57;7.50;83.70
10233;DHT22;5161;48.174;11.756;2023-04-16T03:03:22;7.50;83.70
10233;DHT22;5161;48.174;11.756;2023-04-16T03:05:48;7.50;83.80
10233;DHT22;5161;48.174;11.756;2023-04-16T03:08:14;7.50;83.80
10233;DHT22;5161;48.174;11.756;2023-04-16T03:10:40;7.50;83.70
10233;DHT22;5161;48.174;11.756;2023-04-16T03:13:06;7.50;83.60
10233;DHT22;5161;48.174;11.756;2023-04-16T03:15:32;7.50;83.50
10233;DHT22;5161;48.174;11.756;2023-04-16T03:17:58;7.40;83.50
10233;DHT22;5161;48.174;11.756;2023-04-16T03:20:23;7.40;84.00
10233;DHT22;5161;48.174;11.756;2023-04-16T03:22:50;7.40;83.70
10233;DHT22;5161;48.174;11.756;2023-04-16T03:25:16;7.40;83.90
10233;DHT22;5161;48.174;11.756;2023-04-16T03:27:42;7.40;84.30
10233;DHT22;5161;48.174;11.756;2023-04-16T03:30:10;7.50;84.20
10233;DHT22;5161;48.174;11.756;2023-04-16T03:32:36;7.50;84.40
10233;DHT22;5161;48.174;11.756;2023-04-16T03:35:03;7.60;84.20
10233;DHT22;5161;48.174;11.756;2023-04-16T03:37:29;7.60;84.30
10233;DHT22;5161;48.174;11.756;2023-04-16T03:39:55;7.50;84.00
10233;DHT22;5161;48.174;11.756;2023-04-16T03:42:20;7.50;84.20
10233;DHT22;5161;48.174;11.756;2023-04-16T03:44:46;7.50;84.20
10233;DHT22;5161;48.174;11.756;2023-04-16T03:47:11;7.50;84.50
10233;DHT22;5161;48.174;11.756;2023-04-16T03:49:37;7.50;84.40
10233;DHT22;5161;48.174;11.756;2023-04-16T03:52:02;7.60;84.30
10233;DHT22;5161;48.174;11.756;2023-04-16T03:54:28;7.50;84.20
10233;DHT22;5161;48.174;11.756;2023-04-16T03:56:53;7.50;84.50
10233;DHT22;5161;48.174;11.756;2023-04-16T03:59:20;7.60;84.30
10233;DHT22;5161;48.174;11.756;2023-04-16T04:01:45;7.60;84.50
10233;DHT22;5161;48.174;11.756;2023-04-16T04:04:11;7.60;84.60
10233;DHT22;5161;48.174;11.756;2023-04-16T04:06:37;7.50;84.40
10233;DHT22;5161;48.174;11.756;2023-04-16T04:09:02;7.50;84.50
10233;DHT22;5161;48.174;11.756;2023-04-16T04:11:28;7.50;84.40
10233;DHT22;5161;48.174;11.756;2023-04-16T04:13:53;7.50;84.10
10233;DHT22;5161;48.174;11.756;2023-04-16T04:16:19;7.50;84.20
10233;DHT22;5161;48.174;11.756;2023-04-16T04:18:44;7.50;84.70
10233;DHT22;5161;48.174;11.756;2023-04-16T04:21:10;7.40;84.50
10233;DHT22;5161;48.174;11.756;2023-04-16T04:23:36;7.40;84.80
10233;DHT22;5161;48.174;11.756;2023-04-16T04:26:02;7.50;84.80
10233;DHT22;5161;48.174;11.756;2023-04-16T04:28:30;7.50;84.70
10233;DHT22;5161;48.174;11.756;2023-04-16T04:30:56;7.50;84.70
10233;DHT22;5161;48.174;11.756;2023-04-16T04:33:22;7.60;84.70
10233;DHT22;5161;48.174;11.756;2023-04-16T04:35:48;7.50;84.30
10233;DHT22;5161;48.174;11.756;2023-04-16T04:38:13;7.50;84.10
10233;DHT22;5161;48.174;11.756;2023-04-16T04:40:39;7.40;84.30
10233;DHT22;5161;48.174;11.756;2023-04-16T04:43:04;7.40;84.70
10233;DHT22;5161;48.174;11.756;2023-04-16T04:45:30;7.50;84.60
10233;DHT22;5161;48.174;11.756;2023-04-16T04:47:56;7.40;84.40
10233;DHT22;5161;48.174;11.756;2023-04-16T04:50:21;7.40;84.50
10233;DHT22;5161;48.174;11.756;2023-04-16T04:52:47;7.40;84.50
10233;DHT22;5161;48.174;11.756;2023-04-16T04:55:12;7.40;84.90
10233;DHT22;5161;48.174;11.756;2023-04-16T04:57:40;7.40;84.70
10233;DHT22;5161;48.174;11.756;2023-04-16T05:00:06;7.50;84.70
10233;DHT22;5161;48.174;11.756;2023-04-16T05:02:32;7.40;84.60
10233;DHT22;5161;48.174;11.756;2023-04-16T05:04:58;7.40;84.70
10233;DHT22;5161;48.174;11.756;2023-04-16T05:07:23;7.40;84.80
10233;DHT22;5161;48.174;11.756;2023-04-16T05:09:49;7.40;85.00
10233;DHT22;5161;48.174;11.756;2023-04-16T05:12:14;7.40;85.00
10233;DHT22;5161;48.174;11.756;2023-04-16T05:14:40;7.40;84.80
10233;DHT22;5161;48.174;11.756;2023-04-16T05:17:06;7.40;85.20
10233;DHT22;5161;48.174;11.756;2023-04-16T05:19:32;7.40;85.10
10233;DHT22;5161;48.174;11.756;2023-04-16T05:21:58;7.40;85.10
10233;DHT22;5161;48.174;11.756;2023-04-16T05:24:24;7.40;85.20
10233;DHT22;5161;48.174;11.756;2023-04-16T05:26:49;7.30;85.00
10233;DHT22;5161;48.174;11.756;2023-04-16T05:29:15;7.30;85.70
10233;DHT22;5161;48.174;11.756;2023-04-16T05:31:41;7.40;85.50
10233;DHT22;5161;48.174;11.756;2023-04-16T05:34:06;7.40;85.60
10233;DHT22;5161;48.174;11.756;2023-04-16T05:36:32;7.50;85.90
10233;DHT22;5161;48.174;11.756;2023-04-16T05:38:57;7.50;85.90
10233;DHT22;5161;48.174;11.756;2023-04-16T05:41:24;7.60;85.60
10233;DHT22;5161;48.174;11.756;2023-04-16T05:43:50;7.50;85.50
10233;DHT22;5161;48.174;11.756;2023-04-16T05:46:15;7.50;85.70
10233;DHT22;5161;48.174;11.756;2023-04-16T05:48:41;7.50;85.60
10233;DHT22;5161;48.174;11.756;2023-04-16T05:51:07;7.40;85.70
10233;DHT22;5161;48.174;11.756;2023-04-16T05:53:49;7.40;85.90
10233;DHT22;5161;48.174;11.756;2023-04-16T05:56:14;7.50;86.40
10233;DHT22;5161;48.174;11.756;2023-04-16T05:58:40;7.30;85.90
10233;DHT22;5161;48.174;11.756;2023-04-16T06:01:06;7.30;86.20
10233;DHT22;5161;48.174;11.756;2023-04-16T06:03:31;7.40;86.40
10233;DHT22;5161;48.174;11.756;2023-04-16T06:06:03;7.30;86.00
10233;DHT22;5161;48.174;11.756;2023-04-16T06:08:29;7.40;86.40
10233;DHT22;5161;48.174;11.756;2023-04-16T06:10:54;7.30;86.70
10233;DHT22;5161;48.174;11.756;2023-04-16T06:13:21;7.30;86.20
10233;DHT22;5161;48.174;11.756;2023-04-16T06:15:46;7.30;86.80
10233;DHT22;5161;48.174;11.756;2023-04-16T06:18:12;7.20;86.40
10233;DHT22;5161;48.174;11.756;2023-04-16T06:20:40;7.10;86.50
10233;DHT22;5161;48.174;11.756;2023-04-16T06:23:06;7.20;87.00
10233;DHT22;5161;48.174;11.756;2023-04-16T06:25:32;7.30;87.20
10233;DHT22;5161;48.174;11.756;2023-04-16T06:27:57;7.20;86.80
10233;DHT22;5161;48.174;11.756;2023-04-16T06:30:23;7.30;87.10
10233;DHT22;5161;48.174;11.756;2023-04-16T06:32:48;7.40;87.30
10233;DHT22;5161;48.174;11.756;2023-04-16T06:35:14;7.30;87.10
10233;DHT22;5161;48.174;11.756;2023-04-16T06:37:40;7.40;87.10
10233;DHT22;5161;48.174;11.756;2023-04-16T06:40:06;7.50;87.30
10233;DHT22;5161;48.174;11.756;2023-04-16T06:42:32;7.60;86.80
10233;DHT22;5161;48.174;11.756;2023-04-16T06:44:57;7.50;86.70
10233;DHT22;5161;48.174;11.756;2023-04-16T06:47:23;7.60;87.30
10233;DHT22;5161;48.174;11.756;2023-04-16T06:49:49;7.70;87.60
10233;DHT22;5161;48.174;11.756;2023-04-16T06:52:14;7.70;87.30
10233;DHT22;5161;48.174;11.756;2023-04-16T06:54:40;7.60;86.20
10233;DHT22;5161;48.174;11.756;2023-04-16T06:57:05;7.50;86.30
10233;DHT22;5161;48.174;11.756;2023-04-16T06:59:31;7.50;87.10
10233;DHT22;5161;48.174;11.756;2023-04-16T07:01:58;7.50;86.90
10233;DHT22;5161;48.174;11.756;2023-04-16T07:04:25;7.60;87.00
10233;DHT22;5161;48.174;11.756;2023-04-16T07:06:50;7.50;86.80
10233;DHT22;5161;48.174;11.756;2023-04-16T07:09:16;7.60;87.00
10233;DHT22;5161;48.174;11.756;2023-04-16T07:11:45;7.60;86.60
10233;DHT22;5161;48.174;11.756;2023-04-16T07:14:10;7.60;86.20
10233;DHT22;5161;48.174;11.756;2023-04-16T07:16:36;7.50;86.40
10233;DHT22;5161;48.174;11.756;2023-04-16T07:19:02;7.50;86.60
10233;DHT22;5161;48.174;11.756;2023-04-16T07:21:28;7.50;87.20
10233;DHT22;5161;48.174;11.756;2023-04-16T07:23:54;7.50;86.90
10233;DHT22;5161;48.174;11.756;2023-04-16T07:26:19;7.50;86.90
10233;DHT22;5161;48.174;11.756;2023-04-16T07:28:45;7.50;87.20
10233;DHT22;5161;48.174;11.756;2023-04-16T07:31:11;7.60;87.20
10233;DHT22;5161;48.174;11.756;2023-04-16T07:33:36;7.70;87.40
10233;DHT22;5161;48.174;11.756;2023-04-16T07:36:04;7.80;87.60
10233;DHT22;5161;48.174;11.756;2023-04-16T07:38:29;7.70;87.20
10233;DHT22;5161;48.174;11.756;2023-04-16T07:40:55;7.70;87.30
10233;DHT22;5161;48.174;11.756;2023-04-16T07:43:21;7.70;87.60
10233;DHT22;5161;48.174;11.756;2023-04-16T07:45:46;7.70;87.00
10233;DHT22;5161;48.174;11.756;2023-04-16T07:48:12;7.80;87.00
10233;DHT22;5161;48.174;11.756;2023-04-16T07:50:38;7.70;86.60
10233;DHT22;5161;48.174;11.756;2023-04-16T07:53:04;7.60;87.10
10233;DHT22;5161;48.174;11.756;2023-04-16T07:55:31;7.60;86.90
10233;DHT22;5161;48.174;11.756;2023-04-16T07:57:57;7.60;87.20
10233;DHT22;5161;48.174;11.756;2023-04-16T08:00:23;7.60;87.30
10233;DHT22;5161;48.174;11.756;2023-04-16T08:02:48;7.70;87.60
10233;DHT22;5161;48.174;11.756;2023-04-16T08:05:14;7.80;87.20
10233;DHT22;5161;48.174;11.756;2023-04-16T08:07:39;7.80;86.80
10233;DHT22;5161;48.174;11.756;2023-04-16T08:10:05;7.90;87.00
10233;DHT22;5161;48.174;11.756;2023-04-16T08:12:31;7.90;87.30
10233;DHT22;5161;48.174;11.756;2023-04-16T08:14:57;7.70;85.90
10233;DHT22;5161;48.174;11.756;2023-04-16T08:17:22;7.70;86.80
10233;DHT22;5161;48.174;11.756;2023-04-16T08:19:48;7.70;87.10
10233;DHT22;5161;48.174;11.756;2023-04-16T08:22:13;7.80;87.50
10233;DHT22;5161;48.174;11.756;2023-04-16T08:24:39;7.90;87.40
10233;DHT22;5161;48.174;11.756;2023-04-16T08:27:05;8.00;86.70
10233;DHT22;5161;48.174;11.756;2023-04-16T08:29:31;7.90;86.60
10233;DHT22;5161;48.174;11.756;2023-04-16T08:31:57;8.00;87.00
10233;DHT22;5161;48.174;11.756;2023-04-16T08:34:23;7.90;86.20
10233;DHT22;5161;48.174;11.756;2023-04-16T08:36:48;7.90;86.60
10233;DHT22;5161;48.174;11.756;2023-04-16T08:39:14;8.00;86.60
10233;DHT22;5161;48.174;11.756;2023-04-16T08:41:43;8.10;86.50
10233;DHT22;5161;48.174;11.756;2023-04-16T08:44:20;8.20;86.80
10233;DHT22;5161;48.174;11.756;2023-04-16T08:46:46;8.30;86.80
10233;DHT22;5161;48.174;11.756;2023-04-16T08:49:15;8.30;86.50
10233;DHT22;5161;48.174;11.756;2023-04-16T08:51:49;8.30;86.30
10233;DHT22;5161;48.174;11.756;2023-04-16T08:57:22;8.40;86.60
10233;DHT22;5161;48.174;11.756;2023-04-16T08:59:50;8.50;86.90
10233;DHT22;5161;48.174;11.756;2023-04-16T09:02:16;8.50;86.80
10233;DHT22;5161;48.174;11.756;2023-04-16T09:04:42;8.50;86.30
10233;DHT22;5161;48.174;11.756;2023-04-16T09:07:09;8.50;86.30
10233;DHT22;5161;48.174;11.756;2023-04-16T09:09:37;8.50;85.40
10233;DHT22;5161;48.174;11.756;2023-04-16T09:12:03;8.50;85.60
10233;DHT22;5161;48.174;11.756;2023-04-16T09:14:29;8.60;85.80
10233;DHT22;5161;48.174;11.756;2023-04-16T09:16:55;8.60;85.80
10233;DHT22;5161;48.174;11.756;2023-04-16T09:19:22;8.70;85.70
10233;DHT22;5161;48.174;11.756;2023-04-16T09:21:48;8.60;84.80
10233;DHT22;5161;48.174;11.756;2023-04-16T09:24:14;8.50;85.00
10233;DHT22;5161;48.174;11.756;2023-04-16T09:26:41;8.60;85.20
10233;DHT22;5161;48.174;11.756;2023-04-16T09:29:07;8.60;84.60
10233;DHT22;5161;48.174;11.756;2023-04-16T09:31:33;8.70;85.40
10233;DHT22;5161;48.174;11.756;2023-04-16T09:34:04;8.80;85.60
10233;DHT22;5161;48.174;11.756;2023-04-16T09:36:30;8.80;84.70
10233;DHT22;5161;48.174;11.756;2023-04-16T09:38:57;8.90;85.30
10233;DHT22;5161;48.174;11.756;2023-04-16T09:41:25;9.10;84.80
10233;DHT22;5161;48.174;11.756;2023-04-16T09:43:58;9.10;84.60
10233;DHT22;5161;48.174;11.756;2023-04-16T09:46:40;9.20;85.50
10233;DHT22;5161;48.174;11.756;2023-04-16T09:49:13;9.30;83.70
10233;DHT22;5161;48.174;11.756;2023-04-16T09:51:48;9.30;83.70
10233;DHT22;5161;48.174;11.756;2023-04-16T09:54:18;9.30;84.40
10233;DHT22;5161;48.174;11.756;2023-04-16T09:56:45;9.40;83.30
10233;DHT22;5161;48.174;11.756;2023-04-16T09:59:21;9.50;83.10
10233;DHT22;5161;48.174;11.756;2023-04-16T10:01:47;9.50;83.20
10233;DHT22;5161;48.174;11.756;2023-04-16T10:04:17;9.50;82.60
10233;DHT22;5161;48.174;11.756;2023-04-16T10:06:44;9.60;81.90
10233;DHT22;5161;48.174;11.756;2023-04-16T10:09:12;9.70;82.50
10233;DHT22;5161;48.174;11.756;2023-04-16T10:11:38;9.60;82.10
10233;DHT22;5161;48.174;11.756;2023-04-16T10:14:04;9.50;81.30
10233;DHT22;5161;48.174;11.756;2023-04-16T10:16:29;9.50;81.60
10233;DHT22;5161;48.174;11.756;2023-04-16T10:18:55;9.50;81.20
10233;DHT22;5161;48.174;11.756;2023-04-16T10:21:21;9.50;81.20
10233;DHT22;5161;48.174;11.756;2023-04-16T10:23:47;9.50;81.40
10233;DHT22;5161;48.174;11.756;2023-04-16T10:26:14;9.50;81.50
10233;DHT22;5161;48.174;11.756;2023-04-16T10:28:44;9.60;81.60
10233;DHT22;5161;48.174;11.756;2023-04-16T10:31:10;9.60;81.00
10233;DHT22;5161;48.174;11.756;2023-04-16T10:33:39;9.60;81.50
10233;DHT22;5161;48.174;11.756;2023-04-16T10:36:12;9.60;80.90
10233;DHT22;5161;48.174;11.756;2023-04-16T10:38:40;9.70;80.70
10233;DHT22;5161;48.174;11.756;2023-04-16T10:41:06;9.80;81.80
10233;DHT22;5161;48.174;11.756;2023-04-16T10:43:39;9.80;81.70
10233;DHT22;5161;48.174;11.756;2023-04-16T10:48:46;9.80;80.60
10233;DHT22;5161;48.174;11.756;2023-04-16T10:51:35;9.80;82.10
10233;DHT22;5161;48.174;11.756;2023-04-16T10:56:34;9.70;80.30
10233;DHT22;5161;48.174;11.756;2023-04-16T10:59:02;9.70;81.30
10233;DHT22;5161;48.174;11.756;2023-04-16T11:01:57;9.70;82.10
10233;DHT22;5161;48.174;11.756;2023-04-16T11:07:06;9.70;82.30
10233;DHT22;5161;48.174;11.756;2023-04-16T11:12:39;9.60;79.80
10233;DHT22;5161;48.174;11.756;2023-04-16T11:15:09;9.60;80.30
10233;DHT22;5161;48.174;11.756;2023-04-16T11:17:40;9.60;80.90
10233;DHT22;5161;48.174;11.756;2023-04-16T11:20:14;9.60;80.90
10233;DHT22;5161;48.174;11.756;2023-04-16T11:22:41;9.60;80.20
10233;DHT22;5161;48.174;11.756;2023-04-16T11:25:07;9.60;81.20
10233;DHT22;5161;48.174;11.756;2023-04-16T11:27:33;9.60;81.70
10233;DHT22;5161;48.174;11.756;2023-04-16T11:30:07;9.60;82.10
10233;DHT22;5161;48.174;11.756;2023-04-16T11:32:35;9.70;81.10
10233;DHT22;5161;48.174;11.756;2023-04-16T11:35:03;9.80;82.70
10233;DHT22;5161;48.174;11.756;2023-04-16T11:37:34;9.80;82.80
10233;DHT22;5161;48.174;11.756;2023-04-16T11:40:02;9.90;82.40
10233;DHT22;5161;48.174;11.756;2023-04-16T11:42:32;9.90;83.10
10233;DHT22;5161;48.174;11.756;2023-04-16T11:44:58;9.90;82.60
10233;DHT22;5161;48.174;11.756;2023-04-16T11:47:25;9.80;81.60
10233;DHT22;5161;48.174;11.756;2023-04-16T11:49:52;9.80;82.20
10233;DHT22;5161;48.174;11.756;2023-04-16T11:52:31;9.70;81.70
10233;DHT22;5161;48.174;11.756;2023-04-16T11:54:57;9.70;80.30
10233;DHT22;5161;48.174;11.756;2023-04-16T11:57:28;9.70;81.60
10233;DHT22;5161;48.174;11.756;2023-04-16T11:59:55;9.60;80.60
10233;DHT22;5161;48.174;11.756;2023-04-16T12:02:36;9.60;81.50
10233;DHT22;5161;48.174;11.756;2023-04-16T12:05:03;9.60;79.70
10233;DHT22;5161;48.174;11.756;2023-04-16T12:07:29;9.60;81.30
10233;DHT22;5161;48.174;11.756;2023-04-16T12:10:07;9.60;81.50
10233;DHT22;5161;48.174;11.756;2023-04-16T12:12:33;9.70;80.20
10233;DHT22;5161;48.174;11.756;2023-04-16T12:15:01;9.70;81.90
10233;DHT22;5161;48.174;11.756;2023-04-16T12:17:31;9.70;81.80
10233;DHT22;5161;48.174;11.756;2023-04-16T12:19:58;9.70;81.90
10233;DHT22;5161;48.174;11.756;2023-04-16T12:22:29;9.80;82.40
10233;DHT22;5161;48.174;11.756;2023-04-16T12:24:57;9.80;82.00
10233;DHT22;5161;48.174;11.756;2023-04-16T12:27:23;9.80;82.80
10233;DHT22;5161;48.174;11.756;2023-04-16T12:30:05;9.90;82.20
10233;DHT22;5161;48.174;11.756;2023-04-16T12:32:32;9.90;80.70
10233;DHT22;5161;48.174;11.756;2023-04-16T12:34:57;9.80;81.90
10233;DHT22;5161;48.174;11.756;2023-04-16T12:37:23;9.80;82.30
10233;DHT22;5161;48.174;11.756;2023-04-16T12:39:49;9.80;82.70
10233;DHT22;5161;48.174;11.756;2023-04-16T12:42:15;9.80;82.80
10233;DHT22;5161;48.174;11.756;2023-04-16T12:44:40;9.80;82.00
10233;DHT22;5161;48.174;11.756;2023-04-16T12:47:06;9.90;82.00
10233;DHT22;5161;48.174;11.756;2023-04-16T12:49:31;9.90;82.20
10233;DHT22;5161;48.174;11.756;2023-04-16T12:51:57;9.80;81.80
10233;DHT22;5161;48.174;11.756;2023-04-16T12:54:23;9.80;82.00
10233;DHT22;5161;48.174;11.756;2023-04-16T12:56:53;9.80;81.90
10233;DHT22;5161;48.174;11.756;2023-04-16T12:59:18;9.90;82.60
10233;DHT22;5161;48.174;11.756;2023-04-16T13:01:44;10.00;81.60
10233;DHT22;5161;48.174;11.756;2023-04-16T13:04:10;10.00;81.60
10233;DHT22;5161;48.174;11.756;2023-04-16T13:06:35;10.10;81.00
10233;DHT22;5161;48.174;11.756;2023-04-16T13:09:02;10.10;80.50
10233;DHT22;5161;48.174;11.756;2023-04-16T13:11:29;10.10;80.60
10233;DHT22;5161;48.174;11.756;2023-04-16T13:13:54;10.10;80.50
10233;DHT22;5161;48.174;11.756;2023-04-16T13:16:20;10.20;79.60
10233;DHT22;5161;48.174;11.756;2023-04-16T13:18:45;10.20;79.50
10233;DHT22;5161;48.174;11.756;2023-04-16T13:21:11;10.10;80.00
10233;DHT22;5161;48.174;11.756;2023-04-16T13:23:36;10.20;80.10
10233;DHT22;5161;48.174;11.756;2023-04-16T13:26:02;10.20;79.40
10233;DHT22;5161;48.174;11.756;2023-04-16T13:28:28;10.20;79.80
10233;DHT22;5161;48.174;11.756;2023-04-16T13:30:53;10.20;79.90
10233;DHT22;5161;48.174;11.756;2023-04-16T13:33:19;10.20;79.10
10233;DHT22;5161;48.174;11.756;2023-04-16T13:35:47;10.20;79.80
10233;DHT22;5161;48.174;11.756;2023-04-16T13:38:12;10.20;79.00
10233;DHT22;5161;48.174;11.756;2023-04-16T13:40:38;10.20;79.30
10233;DHT22;5161;48.174;11.756;2023-04-16T13:43:04;10.10;79.80
10233;DHT22;5161;48.174;11.756;2023-04-16T13:45:29;10.10;79.90
10233;DHT22;5161;48.174;11.756;2023-04-16T13:47:55;10.00;80.00
10233;DHT22;5161;48.174;11.756;2023-04-16T13:50:20;10.00;80.70
10233;DHT22;5161;48.174;11.756;2023-04-16T13:52:46;10.00;80.80
10233;DHT22;5161;48.174;11.756;2023-04-16T13:55:11;10.10;81.10
10233;DHT22;5161;48.174;11.756;2023-04-16T13:57:39;10.00;80.20
10233;DHT22;5161;48.174;11.756;2023-04-16T14:00:06;10.00;80.90
10233;DHT22;5161;48.174;11.756;2023-04-16T14:02:32;10.00;79.80
10233;DHT22;5161;48.174;11.756;2023-04-16T14:04:57;10.00;80.70
10233;DHT22;5161;48.174;11.756;2023-04-16T14:07:23;10.00;80.70
10233;DHT22;5161;48.174;11.756;2023-04-16T14:09:52;9.90;81.50
10233;DHT22;5161;48.174;11.756;2023-04-16T14:12:18;9.90;81.20
10233;DHT22;5161;48.174;11.756;2023-04-16T14:14:43;9.80;81.10
10233;DHT22;5161;48.174;11.756;2023-04-16T14:17:09;9.80;81.00
10233;DHT22;5161;48.174;11.756;2023-04-16T14:19:35;9.80;81.40
10233;DHT22;5161;48.174;11.756;2023-04-16T14:22:00;9.80;81.30
10233;DHT22;5161;48.174;11.756;2023-04-16T14:24:26;9.80;81.00
10233;DHT22;5161;48.174;11.756;2023-04-16T14:26:51;9.70;80.80
10233;DHT22;5161;48.174;11.756;2023-04-16T14:29:17;9.70;80.70
10233;DHT22;5161;48.174;11.756;2023-04-16T14:31:42;9.70;80.70
10233;DHT22;5161;48.174;11.756;2023-04-16T14:34:08;9.60;80.40
10233;DHT22;5161;48.174;11.756;2023-04-16T14:36:35;9.60;80.60
10233;DHT22;5161;48.174;11.756;2023-04-16T14:39:00;9.60;80.30
10233;DHT22;5161;48.174;11.756;2023-04-16T14:41:26;9.60;80.70
10233;DHT22;5161;48.174;11.756;2023-04-16T14:43:51;9.60;80.70
10233;DHT22;5161;48.174;11.756;2023-04-16T14:46:17;9.70;81.30
10233;DHT22;5161;48.174;11.756;2023-04-16T14:48:43;9.70;81.10
10233;DHT22;5161;48.174;11.756;2023-04-16T14:51:09;9.70;81.10
10233;DHT22;5161;48.174;11.756;2023-04-16T14:53:38;9.60;80.90
10233;DHT22;5161;48.174;11.756;2023-04-16T14:56:04;9.60;80.90
10233;DHT22;5161;48.174;11.756;2023-04-16T14:58:30;9.50;81.00
10233;DHT22;5161;48.174;11.756;2023-04-16T15:00:57;9.50;81.20
10233;DHT22;5161;48.174;11.756;2023-04-16T15:03:23;9.50;81.50
10233;DHT22;5161;48.174;11.756;2023-04-16T15:05:48;9.60;81.70
10233;DHT22;5161;48.174;11.756;2023-04-16T15:08:19;9.70;81.80
10233;DHT22;5161;48.174;11.756;2023-04-16T15:10:45;9.60;81.00
10233;DHT22;5161;48.174;11.756;2023-04-16T15:13:11;9.70;81.80
10233;DHT22;5161;48.174;11.756;2023-04-16T15:15:36;9.70;81.60
10233;DHT22;5161;48.174;11.756;2023-04-16T15:18:03;9.60;80.90
10233;DHT22;5161;48.174;11.756;2023-04-16T15:20:29;9.60;81.00
10233;DHT22;5161;48.174;11.756;2023-04-16T15:22:55;9.60;81.00
10233;DHT22;5161;48.174;11.756;2023-04-16T15:25:21;9.60;80.70
10233;DHT22;5161;48.174;11.756;2023-04-16T15:27:47;9.60;80.70
10233;DHT22;5161;48.174;11.756;2023-04-16T15:30:13;9.60;80.80
10233;DHT22;5161;48.174;11.756;2023-04-16T15:32:38;9.60;81.10
10233;DHT22;5161;48.174;11.756;2023-04-16T15:35:04;9.60;81.00
10233;DHT22;5161;48.174;11.756;2023-04-16T15:37:30;9.70;81.50
10233;DHT22;5161;48.174;11.756;2023-04-16T15:39:56;9.70;80.80
10233;DHT22;5161;48.174;11.756;2023-04-16T15:42:22;9.70;81.20
10233;DHT22;5161;48.174;11.756;2023-04-16T15:44:48;9.70;81.10
10233;DHT22;5161;48.174;11.756;2023-04-16T15:47:13;9.70;81.30
10233;DHT22;5161;48.174;11.756;2023-04-16T15:49:40;9.70;81.00
10233;DHT22;5161;48.174;11.756;2023-04-16T15:52:06;9.70;81.30
10233;DHT22;5161;48.174;11.756;2023-04-16T15:54:32;9.70;81.60